Time;durP1;ratioP1;P1;durP2;ratioP2;P2;SDS_P1;SDS_P2;PMS_P1;PMS_P2;Temp;Humidity;BMP_temperature;BMP_pressure;BME280_temperature;BME280_humidity;BME280_pressure;Samples;Min_cycle;Max_cycle;Signal;HPM_P1;HPM_P2
2021/05/24 00:02:42;;;;;;;6.20;1.43;;;;;;;;;;13164109;22;20192;-79
2021/05/24 00:07:46;;;;;;;3.23;1.30;;;;;;;;;;13158839;22;20180;-77
2021/05/24 00:12:50;;;;;;;2.60;1.13;;;;;;;;;;13168693;22;20259;-78
2021/05/24 00:17:52;;;;;;;2.73;1.30;;;;;;;;;;13141764;22;20196;-79
2021/05/24 00:22:56;;;;;;;3.13;1.40;;;;;;;;;;13145936;22;20656;-79
2021/05/24 00:28:00;;;;;;;3.43;1.37;;;;;;;;;;13164031;22;20360;-77
2021/05/24 00:33:03;;;;;;;3.23;1.50;;;;;;;;;;13165212;22;20187;-78
2021/05/24 00:38:07;;;;;;;3.10;1.37;;;;;;;;;;13166030;22;20663;-78
2021/05/24 00:43:09;;;;;;;3.97;1.60;;;;;;;;;;13166279;22;20653;-78
2021/05/24 00:48:12;;;;;;;3.40;1.50;;;;;;;;;;13164487;22;20172;-79
2021/05/24 00:53:15;;;;;;;3.87;1.57;;;;;;;;;;13146662;22;20684;-78
2021/05/24 00:58:18;;;;;;;3.43;1.30;;;;;;;;;;13167481;22;20480;-79
2021/05/24 01:03:20;;;;;;;2.97;1.40;;;;;;;;;;13162294;22;20679;-79
2021/05/24 01:08:23;;;;;;;3.37;1.50;;;;;;;;;;13144817;22;20622;-79
2021/05/24 01:13:26;;;;;;;3.73;1.40;;;;;;;;;;13165529;22;20184;-79
2021/05/24 01:18:29;;;;;;;3.07;1.20;;;;;;;;;;13164996;22;20200;-79
2021/05/24 01:23:32;;;;;;;4.80;1.30;;;;;;;;;;13165282;22;20172;-78
2021/05/24 01:28:35;;;;;;;3.07;1.20;;;;;;;;;;13146514;22;20184;-77
2021/05/24 01:33:37;;;;;;;2.93;1.40;;;;;;;;;;13148073;22;20181;-78
2021/05/24 01:38:42;;;;;;;2.87;1.37;;;;;;;;;;13146986;22;20929;-78
2021/05/24 01:43:44;;;;;;;2.60;1.20;;;;;;;;;;13164621;22;20176;-80
2021/05/24 01:48:47;;;;;;;3.03;1.10;;;;;;;;;;13166971;22;20203;-79
2021/05/24 01:53:50;;;;;;;2.43;1.20;;;;;;;;;;13145029;22;20179;-79
2021/05/24 01:58:52;;;;;;;3.47;1.20;;;;;;;;;;13146377;22;20210;-79
2021/05/24 02:03:55;;;;;;;1.57;1.20;;;;;;;;;;13166684;22;20696;-79
2021/05/24 02:08:58;;;;;;;4.17;1.10;;;;;;;;;;13170995;22;20229;-78
2021/05/24 02:14:01;;;;;;;4.00;1.43;;;;;;;;;;13144390;22;20681;-78
2021/05/24 02:19:03;;;;;;;2.57;1.30;;;;;;;;;;13142183;22;20214;-78
2021/05/24 02:24:07;;;;;;;1.93;1.20;;;;;;;;;;13164861;22;20724;-78
2021/05/24 02:29:10;;;;;;;3.13;1.27;;;;;;;;;;13164356;22;20168;-78
2021/05/24 02:34:13;;;;;;;2.80;1.30;;;;;;;;;;13140574;22;20281;-80
2021/05/24 02:39:16;;;;;;;2.27;1.23;;;;;;;;;;13145473;22;20212;-79
2021/05/24 02:44:18;;;;;;;1.40;1.00;;;;;;;;;;13165098;22;20534;-79
2021/05/24 02:49:21;;;;;;;2.00;1.10;;;;;;;;;;13163630;22;20371;-78
2021/05/24 02:54:24;;;;;;;3.73;1.17;;;;;;;;;;13143055;22;20179;-79
2021/05/24 02:59:26;;;;;;;2.83;1.40;;;;;;;;;;13164492;22;20239;-79
2021/05/24 03:04:29;;;;;;;5.07;1.40;;;;;;;;;;13161996;22;20282;-78
2021/05/24 03:09:32;;;;;;;2.23;1.00;;;;;;;;;;13160489;22;20215;-79
2021/05/24 03:14:35;;;;;;;2.43;1.27;;;;;;;;;;13142546;22;20259;-78
2021/05/24 03:19:37;;;;;;;3.03;1.13;;;;;;;;;;13162437;22;20227;-79
2021/05/24 03:24:40;;;;;;;3.23;1.23;;;;;;;;;;13169105;22;20785;-80
2021/05/24 03:29:43;;;;;;;2.27;1.10;;;;;;;;;;13164627;22;20172;-80
2021/05/24 03:34:45;;;;;;;4.77;1.30;;;;;;;;;;13144430;22;20177;-78
2021/05/24 03:39:49;;;;;;;1.97;1.20;;;;;;;;;;13144826;22;20303;-78
2021/05/24 03:44:51;;;;;;;3.50;1.50;;;;;;;;;;13167166;22;20176;-78
2021/05/24 03:49:53;;;;;;;2.70;1.13;;;;;;;;;;13144101;22;20172;-78
2021/05/24 03:54:56;;;;;;;2.13;1.10;;;;;;;;;;13166989;22;20264;-79
2021/05/24 03:59:59;;;;;;;2.63;1.00;;;;;;;;;;13146151;22;20744;-79
2021/05/24 04:05:08;;;;;;;3.37;1.20;;;;;;;;;;13141882;22;20661;-78
2021/05/24 04:10:12;;;;;;;2.17;1.20;;;;;;;;;;13169228;22;20260;-78
2021/05/24 04:15:15;;;;;;;1.93;1.00;;;;;;;;;;13143134;22;20608;-78
2021/05/24 04:20:18;;;;;;;2.83;1.23;;;;;;;;;;13143924;22;20204;-78
2021/05/24 04:25:21;;;;;;;1.97;1.03;;;;;;;;;;13165244;22;20428;-77
2021/05/24 04:30:23;;;;;;;2.93;1.17;;;;;;;;;;13165510;22;20229;-78
2021/05/24 04:35:26;;;;;;;1.30;0.93;;;;;;;;;;13164676;22;20938;-77
2021/05/24 04:40:29;;;;;;;2.23;1.10;;;;;;;;;;13169415;22;20211;-79
2021/05/24 04:45:32;;;;;;;1.17;1.00;;;;;;;;;;13166090;22;20251;-79
2021/05/24 04:50:39;;;;;;;3.33;1.10;;;;;;;;;;13164533;22;20244;-78
2021/05/24 04:55:44;;;;;;;2.53;0.90;;;;;;;;;;13165275;22;20255;-78
2021/05/24 05:00:47;;;;;;;2.83;1.10;;;;;;;;;;13166049;22;20686;-78
2021/05/24 05:05:49;;;;;;;0.90;0.90;;;;;;;;;;13145581;22;20199;-77
2021/05/24 05:10:52;;;;;;;1.43;0.90;;;;;;;;;;13167119;22;20248;-79
2021/05/24 05:15:55;;;;;;;2.00;1.00;;;;;;;;;;13157528;22;20495;-78
2021/05/24 05:20:57;;;;;;;2.10;1.20;;;;;;;;;;13165205;22;20203;-79
2021/05/24 05:26:00;;;;;;;1.87;1.00;;;;;;;;;;13164042;22;20211;-77
2021/05/24 05:31:03;;;;;;;2.27;1.10;;;;;;;;;;13165020;22;20176;-76
2021/05/24 05:36:06;;;;;;;2.13;1.10;;;;;;;;;;13161235;22;20176;-77
2021/05/24 05:41:11;;;;;;;2.50;1.00;;;;;;;;;;13141262;22;20208;-81
2021/05/24 05:46:13;;;;;;;2.67;1.20;;;;;;;;;;13161046;22;20190;-81
2021/05/24 05:51:16;;;;;;;3.60;1.10;;;;;;;;;;13164981;22;20870;-82
2021/05/24 05:56:20;;;;;;;3.83;1.20;;;;;;;;;;13163332;22;20290;-81
2021/05/24 06:01:22;;;;;;;2.23;1.20;;;;;;;;;;13163814;22;20224;-80
2021/05/24 06:06:25;;;;;;;2.87;1.20;;;;;;;;;;13165352;22;20177;-80
2021/05/24 06:11:28;;;;;;;2.23;1.30;;;;;;;;;;13145611;22;20183;-81
2021/05/24 06:16:30;;;;;;;2.43;1.30;;;;;;;;;;13141699;22;20645;-81
2021/05/24 06:21:33;;;;;;;1.60;1.10;;;;;;;;;;13145831;22;20261;-81
2021/05/24 06:26:36;;;;;;;2.60;1.30;;;;;;;;;;13163303;22;20169;-80
2021/05/24 06:31:42;;;;;;;1.33;1.07;;;;;;;;;;13142684;22;20173;-81
2021/05/24 06:36:45;;;;;;;3.47;1.27;;;;;;;;;;13162057;22;20187;-80
2021/05/24 06:41:48;;;;;;;2.87;1.30;;;;;;;;;;13168021;22;20299;-80
2021/05/24 06:46:50;;;;;;;2.80;1.30;;;;;;;;;;13162986;22;20283;-80
2021/05/24 06:51:53;;;;;;;3.40;1.23;;;;;;;;;;13164978;22;20168;-80
2021/05/24 06:56:56;;;;;;;2.27;1.20;;;;;;;;;;13167210;22;20180;-79
2021/05/24 07:01:59;;;;;;;3.23;1.70;;;;;;;;;;13160089;22;20215;-79
2021/05/24 07:07:01;;;;;;;4.67;1.40;;;;;;;;;;13165306;22;20183;-80
2021/05/24 07:12:05;;;;;;;4.33;1.43;;;;;;;;;;13142139;22;20203;-82
2021/05/24 07:17:07;;;;;;;2.10;1.27;;;;;;;;;;13162545;22;20619;-79
2021/05/24 07:22:10;;;;;;;3.20;1.37;;;;;;;;;;13165407;22;20227;-80
2021/05/24 07:27:13;;;;;;;2.53;1.37;;;;;;;;;;13166703;22;20168;-80
2021/05/24 07:32:16;;;;;;;2.63;1.30;;;;;;;;;;13160588;22;20203;-81
2021/05/24 07:37:18;;;;;;;1.87;1.13;;;;;;;;;;13164019;22;20621;-80
2021/05/24 07:42:22;;;;;;;2.50;1.20;;;;;;;;;;13164120;22;20200;-80
2021/05/24 07:47:24;;;;;;;1.67;1.07;;;;;;;;;;13162753;22;20188;-80
2021/05/24 07:52:27;;;;;;;1.70;1.20;;;;;;;;;;13164024;22;20399;-80
2021/05/24 07:57:32;;;;;;;3.20;1.10;;;;;;;;;;13163690;22;20493;-80
2021/05/24 08:02:38;;;;;;;3.27;1.20;;;;;;;;;;13162748;22;20184;-81
2021/05/24 08:07:42;;;;;;;1.33;1.13;;;;;;;;;;13172263;22;20169;-80
2021/05/24 08:12:46;;;;;;;1.83;1.00;;;;;;;;;;13167099;22;20172;-82
2021/05/24 08:17:48;;;;;;;2.70;1.37;;;;;;;;;;13145675;22;20196;-79
2021/05/24 08:22:51;;;;;;;4.30;1.20;;;;;;;;;;13167060;22;20172;-80
2021/05/24 08:27:54;;;;;;;2.77;1.10;;;;;;;;;;13167375;22;20183;-79
2021/05/24 08:33:05;;;;;;;3.23;1.30;;;;;;;;;;13163606;22;20669;-77
2021/05/24 08:38:07;;;;;;;2.17;1.17;;;;;;;;;;13168511;22;20204;-79
2021/05/24 08:43:10;;;;;;;3.33;1.20;;;;;;;;;;13145368;22;20172;-80
2021/05/24 08:48:13;;;;;;;3.07;1.40;;;;;;;;;;13163542;22;20269;-79
2021/05/24 08:53:16;;;;;;;2.13;1.07;;;;;;;;;;13166705;22;20504;-80
2021/05/24 08:58:19;;;;;;;3.97;1.30;;;;;;;;;;13167939;22;20206;-83
2021/05/24 09:03:22;;;;;;;2.30;1.30;;;;;;;;;;13161725;22;20545;-80
2021/05/24 09:08:33;;;;;;;2.23;1.20;;;;;;;;;;13147214;22;20187;-81
2021/05/24 09:13:36;;;;;;;3.67;1.20;;;;;;;;;;13166878;22;20747;-80
2021/05/24 09:18:40;;;;;;;2.90;1.50;;;;;;;;;;13164861;22;20196;-80
2021/05/24 09:23:42;;;;;;;2.07;1.30;;;;;;;;;;13164254;22;20226;-80
2021/05/24 09:28:46;;;;;;;2.57;1.30;;;;;;;;;;13166219;22;20267;-80
2021/05/24 09:33:50;;;;;;;3.20;1.50;;;;;;;;;;13161727;22;20172;-81
2021/05/24 09:38:53;;;;;;;2.37;1.50;;;;;;;;;;13168623;22;20200;-80
2021/05/24 09:43:57;;;;;;;1.77;1.20;;;;;;;;;;13166142;22;20165;-81
2021/05/24 09:49:02;;;;;;;2.53;1.10;;;;;;;;;;13165505;22;20182;-80
2021/05/24 09:54:06;;;;;;;1.83;1.20;;;;;;;;;;13167667;22;20164;-79
2021/05/24 09:59:10;;;;;;;1.97;1.23;;;;;;;;;;13164192;22;20230;-80
2021/05/24 10:04:13;;;;;;;2.20;1.23;;;;;;;;;;13164249;22;20210;-80
2021/05/24 10:09:17;;;;;;;1.90;1.27;;;;;;;;;;13167012;22;20172;-81
2021/05/24 10:14:21;;;;;;;4.43;1.33;;;;;;;;;;13166093;22;20251;-81
2021/05/24 10:19:25;;;;;;;2.60;1.30;;;;;;;;;;13162663;22;20243;-80
2021/05/24 10:24:28;;;;;;;3.63;1.10;;;;;;;;;;13167348;22;20171;-81
2021/05/24 10:29:32;;;;;;;3.07;1.20;;;;;;;;;;13164739;22;20191;-81
2021/05/24 10:34:36;;;;;;;9.77;1.30;;;;;;;;;;13163701;22;20648;-82
2021/05/24 10:39:50;;;;;;;1.53;1.20;;;;;;;;;;13143172;22;20208;-81
2021/05/24 10:44:53;;;;;;;3.70;1.20;;;;;;;;;;13166178;22;20824;-80
2021/05/24 10:50:01;;;;;;;1.83;1.20;;;;;;;;;;13163279;22;20229;-80
2021/05/24 10:55:19;;;;;;;3.77;1.20;;;;;;;;;;13165975;22;20168;-81
2021/05/24 11:00:23;;;;;;;1.83;1.13;;;;;;;;;;13119318;22;20269;-81
2021/05/24 11:05:29;;;;;;;1.93;1.20;;;;;;;;;;13149204;22;20192;-80
2021/05/24 11:10:33;;;;;;;5.60;1.50;;;;;;;;;;13169475;22;20630;-81
2021/05/24 11:15:37;;;;;;;2.30;1.30;;;;;;;;;;13168040;22;20182;-81
2021/05/24 11:20:41;;;;;;;3.03;1.23;;;;;;;;;;13162683;22;20196;-79
2021/05/24 11:25:58;;;;;;;2.13;1.10;;;;;;;;;;13164649;22;20625;-79
2021/05/24 11:31:08;;;;;;;1.13;1.03;;;;;;;;;;13164633;22;20164;-80
2021/05/24 11:36:13;;;;;;;2.97;1.20;;;;;;;;;;13165912;22;20204;-80
2021/05/24 11:41:16;;;;;;;2.10;1.20;;;;;;;;;;13168390;22;20282;-80
2021/05/24 11:46:19;;;;;;;1.20;1.10;;;;;;;;;;13167398;22;20172;-79
2021/05/24 11:51:32;;;;;;;2.67;1.10;;;;;;;;;;13147366;22;20732;-79
2021/05/24 11:56:36;;;;;;;1.63;1.20;;;;;;;;;;13170868;22;20172;-80
2021/05/24 12:01:40;;;;;;;2.10;1.20;;;;;;;;;;13144375;22;21043;-81
2021/05/24 12:06:44;;;;;;;1.23;1.10;;;;;;;;;;13170147;22;20256;-81
2021/05/24 12:11:53;;;;;;;1.50;1.10;;;;;;;;;;13146238;22;20187;-80
2021/05/24 12:16:57;;;;;;;3.33;1.40;;;;;;;;;;13167549;22;20172;-83
2021/05/24 12:22:03;;;;;;;1.50;1.20;;;;;;;;;;13146685;22;20200;-81
2021/05/24 12:27:06;;;;;;;3.13;1.30;;;;;;;;;;13168783;22;20566;-79
2021/05/24 12:32:10;;;;;;;2.70;1.40;;;;;;;;;;13142930;22;20566;-79
2021/05/24 12:37:13;;;;;;;2.50;1.40;;;;;;;;;;13147563;22;20176;-81
2021/05/24 12:42:16;;;;;;;1.90;1.40;;;;;;;;;;13145029;22;20680;-80
2021/05/24 12:47:20;;;;;;;1.60;1.30;;;;;;;;;;13165833;22;20173;-81
2021/05/24 12:52:29;;;;;;;2.53;1.30;;;;;;;;;;13135622;22;20685;-80
2021/05/24 12:57:32;;;;;;;2.60;1.50;;;;;;;;;;13166618;22;20179;-81
2021/05/24 13:02:36;;;;;;;3.03;1.40;;;;;;;;;;13163008;22;20555;-81
2021/05/24 13:07:45;;;;;;;1.23;1.10;;;;;;;;;;13169033;22;20522;-81
2021/05/24 13:12:59;;;;;;;1.93;1.30;;;;;;;;;;13166648;22;20851;-81
2021/05/24 13:18:04;;;;;;;1.27;1.13;;;;;;;;;;13166576;22;20250;-82
2021/05/24 13:23:46;;;;;;;1.97;1.47;;;;;;;;;;13168585;22;20204;-81
2021/05/24 13:29:01;;;;;;;1.33;1.10;;;;;;;;;;13167244;22;20176;-81
2021/05/24 13:34:04;;;;;;;6.20;1.40;;;;;;;;;;13164103;22;20175;-81
2021/05/24 13:39:10;;;;;;;2.20;1.30;;;;;;;;;;13154884;22;20204;-82
2021/05/24 13:44:13;;;;;;;1.93;1.13;;;;;;;;;;13164224;22;20188;-82
2021/05/24 13:49:18;;;;;;;1.60;1.20;;;;;;;;;;13162832;22;20177;-80
2021/05/24 13:54:20;;;;;;;2.70;1.47;;;;;;;;;;13165136;22;20177;-82
2021/05/24 13:59:22;;;;;;;2.70;1.40;;;;;;;;;;13166300;22;20208;-81
2021/05/24 14:04:26;;;;;;;2.43;1.30;;;;;;;;;;13161797;22;20206;-81
2021/05/24 14:09:29;;;;;;;2.23;1.40;;;;;;;;;;13168805;22;20177;-82
2021/05/24 14:14:32;;;;;;;3.27;1.50;;;;;;;;;;13164212;22;20165;-81
2021/05/24 14:19:35;;;;;;;3.67;1.60;;;;;;;;;;13142564;22;20484;-81
2021/05/24 14:24:37;;;;;;;2.23;1.50;;;;;;;;;;13165485;22;20938;-84
2021/05/24 14:29:40;;;;;;;2.50;1.27;;;;;;;;;;13165221;22;20559;-81
2021/05/24 14:34:43;;;;;;;2.10;1.30;;;;;;;;;;13163500;22;20172;-83
2021/05/24 14:39:45;;;;;;;2.60;1.40;;;;;;;;;;13142951;22;20211;-82
2021/05/24 14:44:48;;;;;;;1.60;1.40;;;;;;;;;;13164790;22;20166;-81
2021/05/24 14:49:55;;;;;;;3.07;1.50;;;;;;;;;;13136842;22;20781;-79
2021/05/24 14:54:57;;;;;;;2.33;1.47;;;;;;;;;;13166219;22;20564;-80
2021/05/24 15:00:00;;;;;;;3.33;1.50;;;;;;;;;;13162532;22;20208;-81
2021/05/24 15:05:03;;;;;;;4.43;1.50;;;;;;;;;;13139940;22;20250;-80
2021/05/24 15:10:07;;;;;;;2.60;1.50;;;;;;;;;;13160701;22;20603;-81
2021/05/24 15:15:10;;;;;;;1.50;1.40;;;;;;;;;;13161469;22;20468;-80
2021/05/24 15:20:13;;;;;;;2.53;1.50;;;;;;;;;;13140482;22;20298;-83
2021/05/24 15:25:16;;;;;;;2.67;1.80;;;;;;;;;;13167586;22;20561;-80
2021/05/24 15:30:21;;;;;;;2.53;1.50;;;;;;;;;;13166407;22;20176;-83
2021/05/24 15:35:24;;;;;;;3.70;2.00;;;;;;;;;;13166076;22;20176;-80
2021/05/24 15:40:27;;;;;;;4.07;1.93;;;;;;;;;;13150575;22;20723;-80
2021/05/24 15:45:29;;;;;;;4.83;2.00;;;;;;;;;;13171427;22;20177;-80
2021/05/24 15:50:33;;;;;;;4.83;1.80;;;;;;;;;;13169223;22;20267;-79
2021/05/24 15:55:35;;;;;;;4.90;2.00;;;;;;;;;;13149761;22;20517;-79
2021/05/24 16:00:37;;;;;;;2.73;1.80;;;;;;;;;;13170131;22;20204;-79
2021/05/24 16:05:40;;;;;;;4.83;1.83;;;;;;;;;;13164452;22;20238;-79
2021/05/24 16:10:43;;;;;;;3.87;2.13;;;;;;;;;;13170235;22;20243;-80
2021/05/24 16:15:46;;;;;;;5.50;1.90;;;;;;;;;;13166745;22;20175;-80
2021/05/24 16:20:51;;;;;;;5.27;2.00;;;;;;;;;;13146679;22;20231;-80
2021/05/24 16:26:10;;;;;;;3.23;1.93;;;;;;;;;;13165823;22;20168;-80
2021/05/24 16:31:13;;;;;;;4.07;1.90;;;;;;;;;;13166832;22;20171;-79
2021/05/24 16:36:16;;;;;;;4.00;1.60;;;;;;;;;;13167506;22;20172;-80
2021/05/24 16:41:19;;;;;;;2.30;1.70;;;;;;;;;;13169165;22;20200;-79
2021/05/24 16:46:22;;;;;;;2.93;1.73;;;;;;;;;;13163050;22;20593;-79
2021/05/24 16:51:25;;;;;;;2.67;1.70;;;;;;;;;;13168114;22;21170;-79
2021/05/24 16:56:28;;;;;;;3.27;1.80;;;;;;;;;;13165895;22;20172;-81
2021/05/24 17:01:31;;;;;;;3.10;1.70;;;;;;;;;;13164857;22;20200;-80
2021/05/24 17:06:34;;;;;;;2.80;1.80;;;;;;;;;;13144552;22;20493;-79
2021/05/24 17:11:36;;;;;;;2.47;1.80;;;;;;;;;;13167347;22;20181;-80
2021/05/24 17:16:39;;;;;;;3.80;1.40;;;;;;;;;;13163218;22;20179;-80
2021/05/24 17:21:42;;;;;;;2.47;1.50;;;;;;;;;;13168368;22;20204;-81
2021/05/24 17:26:45;;;;;;;2.43;1.60;;;;;;;;;;13165713;22;20622;-84
2021/05/24 17:31:47;;;;;;;3.50;1.67;;;;;;;;;;13183532;22;20176;-86
2021/05/24 17:36:51;;;;;;;3.97;1.60;;;;;;;;;;13164852;22;20191;-81
2021/05/24 17:41:54;;;;;;;4.10;1.43;;;;;;;;;;13165397;22;20235;-80
2021/05/24 17:46:56;;;;;;;4.93;1.73;;;;;;;;;;13162394;22;20251;-80
2021/05/24 17:52:00;;;;;;;9.80;2.17;;;;;;;;;;13161938;22;20180;-83
2021/05/24 17:57:03;;;;;;;5.10;1.70;;;;;;;;;;13161298;22;20177;-80
2021/05/24 18:02:05;;;;;;;9.30;1.80;;;;;;;;;;13134681;22;20550;-81
2021/05/24 18:07:08;;;;;;;7.47;1.90;;;;;;;;;;13144117;22;20238;-81
2021/05/24 18:12:11;;;;;;;8.83;2.10;;;;;;;;;;13138698;22;20176;-81
2021/05/24 18:17:13;;;;;;;4.33;2.10;;;;;;;;;;13139403;22;20251;-80
2021/05/24 18:22:17;;;;;;;3.83;1.80;;;;;;;;;;13161281;22;20258;-80
2021/05/24 18:27:19;;;;;;;6.20;1.87;;;;;;;;;;13142415;22;20173;-81
2021/05/24 18:32:22;;;;;;;4.73;1.90;;;;;;;;;;13135691;22;20186;-80
2021/05/24 18:37:25;;;;;;;6.37;2.40;;;;;;;;;;13139370;22;20199;-80
2021/05/24 18:42:27;;;;;;;6.97;2.23;;;;;;;;;;13160174;22;20234;-81
2021/05/24 18:47:29;;;;;;;9.27;2.40;;;;;;;;;;13135173;22;20161;-80
2021/05/24 18:52:34;;;;;;;5.93;2.10;;;;;;;;;;13160752;22;20238;-80
2021/05/24 18:57:38;;;;;;;7.33;2.00;;;;;;;;;;13158924;22;20443;-79
2021/05/24 19:02:45;;;;;;;6.13;2.30;;;;;;;;;;13156180;22;20218;-80
2021/05/24 19:07:49;;;;;;;5.77;2.30;;;;;;;;;;13162657;22;20195;-79
2021/05/24 19:12:51;;;;;;;5.90;2.27;;;;;;;;;;13159037;22;20176;-81
2021/05/24 19:17:54;;;;;;;10.13;2.50;;;;;;;;;;13157075;22;20247;-82
2021/05/24 19:22:57;;;;;;;7.47;2.57;;;;;;;;;;13158286;22;20786;-82
2021/05/24 19:28:00;;;;;;;6.90;2.20;;;;;;;;;;13139542;22;20192;-82
2021/05/24 19:33:02;;;;;;;5.43;2.30;;;;;;;;;;13157390;22;20180;-83
2021/05/24 19:38:06;;;;;;;5.57;2.20;;;;;;;;;;13142140;22;20953;-83
2021/05/24 19:43:09;;;;;;;4.10;1.90;;;;;;;;;;13163716;22;20200;-83
2021/05/24 20:26:10;;;;;;;7.70;2.60;;;;;;;;;;13166879;22;20505;-82
2021/05/24 20:31:12;;;;;;;5.30;2.30;;;;;;;;;;13165971;22;20192;-81
2021/05/24 20:36:15;;;;;;;7.67;2.60;;;;;;;;;;13169397;22;20176;-81
2021/05/24 20:41:18;;;;;;;4.00;2.40;;;;;;;;;;13170318;22;20231;-81
2021/05/24 20:46:21;;;;;;;3.60;2.40;;;;;;;;;;13141942;22;20172;-82
2021/05/24 20:51:23;;;;;;;7.07;2.70;;;;;;;;;;13146581;22;20273;-82
2021/05/24 20:56:27;;;;;;;5.60;2.80;;;;;;;;;;13165682;22;20255;-83
2021/05/24 21:01:30;;;;;;;5.80;2.70;;;;;;;;;;13167002;22;20311;-82
2021/05/24 21:06:33;;;;;;;5.60;2.30;;;;;;;;;;13166960;22;20204;-82
2021/05/24 21:11:36;;;;;;;6.40;2.70;;;;;;;;;;13167042;22;20605;-83
2021/05/24 21:16:40;;;;;;;5.70;2.13;;;;;;;;;;13163440;22;20172;-82
2021/05/24 21:21:42;;;;;;;7.50;2.80;;;;;;;;;;13144869;22;20204;-83
2021/05/24 21:26:46;;;;;;;6.73;2.83;;;;;;;;;;13164666;22;20852;-82
2021/05/24 21:31:49;;;;;;;5.53;3.10;;;;;;;;;;13148982;22;20179;-83
2021/05/24 21:36:51;;;;;;;6.27;3.07;;;;;;;;;;13164576;22;20207;-82
2021/05/24 21:41:54;;;;;;;4.83;2.80;;;;;;;;;;13144890;22;20295;-82
2021/05/24 21:46:57;;;;;;;8.30;2.90;;;;;;;;;;13159706;22;20677;-82
2021/05/24 21:51:59;;;;;;;7.30;3.20;;;;;;;;;;13166635;22;20577;-84
2021/05/24 21:57:03;;;;;;;7.50;3.27;;;;;;;;;;13164142;22;20811;-83
2021/05/24 22:02:06;;;;;;;6.07;3.10;;;;;;;;;;13163072;22;20208;-82
2021/05/24 22:07:08;;;;;;;6.23;3.30;;;;;;;;;;13166156;22;20172;-83
2021/05/24 22:12:12;;;;;;;7.27;3.40;;;;;;;;;;13161886;22;20181;-83
2021/05/24 22:17:14;;;;;;;7.43;3.50;;;;;;;;;;13162986;22;20168;-83
2021/05/24 22:22:16;;;;;;;5.17;3.10;;;;;;;;;;13142093;22;20204;-83
2021/05/24 22:27:19;;;;;;;7.20;4.00;;;;;;;;;;13162293;22;20172;-82
2021/05/24 22:32:23;;;;;;;5.40;3.80;;;;;;;;;;13156784;22;20178;-82
2021/05/24 22:37:25;;;;;;;6.57;3.43;;;;;;;;;;13144804;22;20182;-83
2021/05/24 22:42:29;;;;;;;6.00;3.70;;;;;;;;;;13163297;22;20203;-82
2021/05/24 22:47:32;;;;;;;6.80;3.80;;;;;;;;;;13139458;22;20227;-82
2021/05/24 22:52:34;;;;;;;8.33;4.10;;;;;;;;;;13162728;22;20173;-81
2021/05/24 22:57:39;;;;;;;6.70;4.10;;;;;;;;;;13163961;22;20177;-83
2021/05/24 23:02:42;;;;;;;6.43;4.30;;;;;;;;;;13138133;22;20552;-83
2021/05/24 23:07:44;;;;;;;7.67;4.80;;;;;;;;;;13164424;22;20218;-81
2021/05/24 23:12:48;;;;;;;8.73;5.97;;;;;;;;;;13162198;22;20247;-82
2021/05/24 23:17:51;;;;;;;6.20;4.90;;;;;;;;;;13139643;22;20172;-82
2021/05/24 23:22:53;;;;;;;7.00;5.30;;;;;;;;;;13162647;22;20283;-83
2021/05/24 23:27:57;;;;;;;6.57;4.20;;;;;;;;;;13141518;22;20179;-84
2021/05/24 23:32:59;;;;;;;4.60;3.40;;;;;;;;;;13159787;22;20571;-82
2021/05/24 23:38:01;;;;;;;4.63;3.27;;;;;;;;;;13167752;22;20245;-83
2021/05/24 23:43:05;;;;;;;3.80;2.50;;;;;;;;;;13166155;22;20726;-82
2021/05/24 23:48:08;;;;;;;3.40;1.83;;;;;;;;;;13165061;22;20967;-82
2021/05/24 23:53:11;;;;;;;2.50;1.30;;;;;;;;;;13166260;22;20200;-81
2021/05/24 23:58:14;;;;;;;2.13;1.10;;;;;;;;;;13167117;22;20204;-81
